createdAt,value
2017-05-19T00:00:56.865Z,14.50
2017-05-19T00:03:25.947Z,15.10
2017-05-19T00:05:55.023Z,14.42
2017-05-19T00:08:24.146Z,13.96
2017-05-19T00:10:54.054Z,14.86
2017-05-19T00:13:23.094Z,14.46
2017-05-19T00:15:52.497Z,13.38
2017-05-19T00:18:23.270Z,16.20
2017-05-19T00:20:52.349Z,14.06
2017-05-19T00:23:22.576Z,13.92
2017-05-19T00:25:51.722Z,14.58
2017-05-19T00:28:20.853Z,15.94
2017-05-19T00:30:50.661Z,14.46
2017-05-19T00:33:19.711Z,15.28
2017-05-19T00:35:48.852Z,14.18
2017-05-19T00:38:17.958Z,16.02
2017-05-19T00:40:47.769Z,15.76
2017-05-19T00:43:17.563Z,14.66
2017-05-19T00:45:46.642Z,14.80
2017-05-19T00:48:15.778Z,13.50
2017-05-19T00:50:45.581Z,15.12
2017-05-19T00:53:15.397Z,15.16
2017-05-19T00:55:45.211Z,14.58
2017-05-19T00:58:15.029Z,15.34
2017-05-19T01:00:44.936Z,17.16
2017-05-19T01:03:13.988Z,15.90
2017-05-19T01:05:43.045Z,15.62
2017-05-19T01:08:12.859Z,16.08
2017-05-19T01:10:42.666Z,15.52
2017-05-19T01:13:11.709Z,15.28
2017-05-19T01:15:40.846Z,14.54
2017-05-19T01:18:10.683Z,16.26
2017-05-19T01:20:39.757Z,15.82
2017-05-19T01:23:10.399Z,16.42
2017-05-19T01:25:40.305Z,15.02
2017-05-19T01:28:10.099Z,15.70
2017-05-19T01:30:39.157Z,15.54
2017-05-19T01:33:08.207Z,15.92
2017-05-19T01:35:37.321Z,15.00
2017-05-19T01:38:07.106Z,15.90
2017-05-19T01:40:36.172Z,15.88
2017-05-19T01:43:05.338Z,16.28
2017-05-19T01:45:35.133Z,15.34
2017-05-19T01:48:04.927Z,15.80
2017-05-19T01:50:33.995Z,16.58
2017-05-19T01:53:03.038Z,17.56
2017-05-19T01:55:32.102Z,16.12
2017-05-19T01:58:01.153Z,16.08
2017-05-19T02:00:30.292Z,16.84
2017-05-19T02:02:59.398Z,15.84
2017-05-19T02:05:28.463Z,16.50
2017-05-19T02:07:57.506Z,16.06
2017-05-19T02:10:26.572Z,16.04
2017-05-19T02:12:56.404Z,16.34
2017-05-19T02:15:25.474Z,16.74
2017-05-19T02:17:55.285Z,17.38
2017-05-19T02:20:25.093Z,16.46
2017-05-19T02:22:54.922Z,16.32
2017-05-19T02:25:24.725Z,16.62
2017-05-19T02:27:54.530Z,17.30
2017-05-19T02:30:24.345Z,16.46
2017-05-19T02:32:53.403Z,15.92
2017-05-19T02:35:22.462Z,17.08
2017-05-19T02:37:51.525Z,17.46
2017-05-19T02:40:20.645Z,18.42
2017-05-19T02:42:49.724Z,17.68
2017-05-19T02:45:18.841Z,17.58
2017-05-19T02:47:47.916Z,18.14
2017-05-19T02:50:17.706Z,18.42
2017-05-19T02:52:46.883Z,19.22
2017-05-19T02:55:16.668Z,19.68
2017-05-19T02:57:45.738Z,16.84
2017-05-19T03:00:14.886Z,18.70
2017-05-19T03:02:44.797Z,18.12
2017-05-19T03:05:14.585Z,18.26
2017-05-19T03:07:43.667Z,18.30
2017-05-19T03:10:12.810Z,19.02
2017-05-19T03:12:42.726Z,18.60
2017-05-19T03:15:12.525Z,17.00
2017-05-19T03:17:42.337Z,19.06
2017-05-19T03:20:12.150Z,18.78
2017-05-19T03:22:41.970Z,18.98
2017-05-19T03:25:11.767Z,19.54
2017-05-19T03:27:40.870Z,18.44
2017-05-19T03:30:10.658Z,18.96
2017-05-19T03:32:39.758Z,19.24
2017-05-19T03:35:08.885Z,19.18
2017-05-19T03:37:38.679Z,20.10
2017-05-19T03:40:07.724Z,20.20
2017-05-19T03:42:36.779Z,20.38
2017-05-19T03:45:06.593Z,18.56
2017-05-19T03:47:36.402Z,18.66
2017-05-19T03:50:06.192Z,18.76
2017-05-19T03:52:35.333Z,19.82
2017-05-19T03:55:04.458Z,19.20
2017-05-19T03:57:33.619Z,19.28
2017-05-19T04:00:03.422Z,17.82
2017-05-19T04:02:33.260Z,19.50
2017-05-19T04:05:02.305Z,18.00
2017-05-19T04:07:31.375Z,18.36
2017-05-19T04:10:00.413Z,18.56
2017-05-19T04:12:29.537Z,20.30
2017-05-19T04:14:58.690Z,18.48
2017-05-19T04:17:27.824Z,20.10
2017-05-19T04:19:57.609Z,19.16
2017-05-19T04:22:26.817Z,32.40
2017-05-19T04:24:55.917Z,26.66
2017-05-19T04:27:25.737Z,20.62
2017-05-19T04:29:55.550Z,19.20
2017-05-19T04:32:24.722Z,26.34
2017-05-19T04:34:53.780Z,25.74
2017-05-19T04:37:23.680Z,21.26
2017-05-19T04:42:28.022Z,18.94
2017-05-19T04:44:57.842Z,20.14
2017-05-19T04:47:26.970Z,20.50
2017-05-19T04:49:56.023Z,21.82
2017-05-19T04:52:25.134Z,22.26
2017-05-19T04:54:54.251Z,24.44
2017-05-19T04:57:23.351Z,19.72
2017-05-19T04:59:52.577Z,23.88
2017-05-19T05:02:21.719Z,27.76
2017-05-19T05:04:50.790Z,21.56
2017-05-19T05:07:19.880Z,22.16
2017-05-19T05:09:48.925Z,21.88
2017-05-19T05:12:18.873Z,20.88
2017-05-19T05:14:48.019Z,19.58
2017-05-19T05:17:17.913Z,19.10
2017-05-19T05:19:47.730Z,20.30
2017-05-19T05:22:17.533Z,21.08
2017-05-19T05:24:46.637Z,21.12
2017-05-19T05:27:15.701Z,22.66
2017-05-19T05:29:45.529Z,19.52
2017-05-19T05:32:14.592Z,19.76
2017-05-19T05:34:43.768Z,21.40
2017-05-19T05:37:13.985Z,18.78
2017-05-19T05:39:43.050Z,21.36
2017-05-19T05:42:12.717Z,20.16
2017-05-19T05:44:42.513Z,19.46
2017-05-19T05:47:12.461Z,18.52
2017-05-19T05:49:41.640Z,19.44
2017-05-19T05:52:10.678Z,19.24
2017-05-19T05:54:39.829Z,26.12
2017-05-19T05:57:09.214Z,63.46
2017-05-19T05:59:39.851Z,25.48
2017-05-19T06:02:09.687Z,27.82
2017-05-19T06:04:38.751Z,21.22
2017-05-19T06:07:07.865Z,21.44
2017-05-19T06:09:36.966Z,20.22
2017-05-19T06:12:06.777Z,20.08
2017-05-19T06:14:36.589Z,20.40
2017-05-19T06:17:06.405Z,20.66
2017-05-19T06:19:36.214Z,18.56
2017-05-19T06:22:05.276Z,19.96
2017-05-19T06:24:34.417Z,19.90
2017-05-19T06:27:04.221Z,21.66
2017-05-19T06:29:33.275Z,21.20
2017-05-19T06:32:02.333Z,19.64
2017-05-19T06:34:31.383Z,18.84
2017-05-19T06:37:00.514Z,18.24
2017-05-19T06:39:30.301Z,17.54
2017-05-19T06:41:59.517Z,19.38
2017-05-19T06:44:28.559Z,17.86
2017-05-19T06:46:57.647Z,19.10
2017-05-19T06:49:26.718Z,17.34
2017-05-19T06:51:56.511Z,18.10
2017-05-19T06:54:25.617Z,18.50
2017-05-19T06:56:55.429Z,18.38
2017-05-19T06:59:25.262Z,17.80
2017-05-19T07:01:55.168Z,16.74
2017-05-19T07:04:24.970Z,18.78
2017-05-19T07:06:54.885Z,18.60
2017-05-19T07:09:24.831Z,18.98
2017-05-19T07:11:53.900Z,16.94
2017-05-19T07:14:23.723Z,18.54
2017-05-19T07:16:53.534Z,19.02
2017-05-19T07:19:23.347Z,17.46
2017-05-19T07:21:53.121Z,16.60
2017-05-19T07:24:22.272Z,18.24
2017-05-19T07:26:51.340Z,17.90
2017-05-19T07:29:21.170Z,22.24
2017-05-19T07:31:50.949Z,18.98
2017-05-19T07:34:20.067Z,18.12
2017-05-19T07:36:49.849Z,17.90
2017-05-19T07:39:18.895Z,18.24
2017-05-19T07:41:47.973Z,17.64
2017-05-19T07:44:17.790Z,18.10
2017-05-19T07:46:47.702Z,17.50
2017-05-19T07:49:17.603Z,17.72
2017-05-19T07:51:46.707Z,16.74
2017-05-19T07:54:16.484Z,16.36
2017-05-19T07:56:45.563Z,16.80
2017-05-19T07:59:14.610Z,16.42
2017-05-19T08:01:44.403Z,17.08
2017-05-19T08:04:13.527Z,16.64
2017-05-19T08:06:43.310Z,16.38
2017-05-19T08:09:12.379Z,16.92
2017-05-19T08:11:41.414Z,16.14
2017-05-19T08:14:10.532Z,15.72
2017-05-19T08:16:39.582Z,14.94
2017-05-19T08:19:08.681Z,16.62
2017-05-19T08:21:37.898Z,14.44
2017-05-19T08:24:06.961Z,15.04
2017-05-19T08:26:36.010Z,14.72
2017-05-19T08:29:05.066Z,14.16
2017-05-19T08:31:34.112Z,14.78
2017-05-19T08:34:03.165Z,14.78
2017-05-19T08:36:32.221Z,14.18
2017-05-19T08:39:01.334Z,14.46
2017-05-19T08:41:30.463Z,15.14
2017-05-19T08:43:59.541Z,14.12
2017-05-19T08:46:28.590Z,14.76
2017-05-19T08:48:57.668Z,13.84
2017-05-19T08:51:27.588Z,13.64
2017-05-19T08:53:57.362Z,13.34
2017-05-19T08:56:26.480Z,14.50
2017-05-19T08:58:56.281Z,13.20
2017-05-19T09:01:25.317Z,13.70
2017-05-19T09:03:54.485Z,13.30
2017-05-19T09:06:24.307Z,14.80
2017-05-19T09:08:54.222Z,13.70
2017-05-19T09:11:24.025Z,12.74
2017-05-19T09:13:53.822Z,11.90
2017-05-19T09:16:22.861Z,10.56
2017-05-19T09:18:51.930Z,10.54
2017-05-19T09:21:21.742Z,11.70
2017-05-19T09:23:51.549Z,11.32
2017-05-19T09:26:21.343Z,11.96
2017-05-19T09:28:50.457Z,12.14
2017-05-19T09:31:20.249Z,12.52
2017-05-19T09:33:49.309Z,11.54
2017-05-19T09:36:18.362Z,11.44
2017-05-19T09:38:48.151Z,11.06
2017-05-19T09:41:17.986Z,15.60
2017-05-19T09:43:47.774Z,12.30
2017-05-19T09:46:17.589Z,11.40
2017-05-19T09:48:47.398Z,11.46
2017-05-19T09:51:17.271Z,10.48
2017-05-19T09:53:46.425Z,10.82
2017-05-19T09:56:16.241Z,9.90
2017-05-19T09:58:46.023Z,9.38
2017-05-19T10:01:15.056Z,10.10
2017-05-19T10:03:44.131Z,11.14
2017-05-19T10:06:13.933Z,10.98
2017-05-19T10:08:43.047Z,10.60
2017-05-19T10:11:12.832Z,11.78
2017-05-19T10:13:41.887Z,11.46
2017-05-19T10:16:10.940Z,11.10
2017-05-19T10:18:40.743Z,11.08
2017-05-19T10:21:09.848Z,12.38
2017-05-19T10:23:39.650Z,13.66
2017-05-19T10:26:08.757Z,12.22
2017-05-19T10:28:38.561Z,12.64
2017-05-19T10:31:08.381Z,10.80
2017-05-19T10:33:38.178Z,10.68
2017-05-19T10:36:07.207Z,10.26
2017-05-19T10:38:36.297Z,13.36
2017-05-19T10:41:06.069Z,11.12
2017-05-19T10:43:35.199Z,11.72
2017-05-19T10:46:04.233Z,11.86
2017-05-19T10:48:33.377Z,11.02
2017-05-19T10:51:02.415Z,9.72
2017-05-19T10:53:31.478Z,10.98
2017-05-19T10:56:01.256Z,12.38
2017-05-19T10:58:30.384Z,9.78
2017-05-19T11:01:00.172Z,9.50
2017-05-19T11:03:29.201Z,8.40
2017-05-19T11:05:59.005Z,9.78
2017-05-19T11:08:28.101Z,8.34
2017-05-19T11:10:57.201Z,9.14
2017-05-19T11:13:26.242Z,9.40
2017-05-19T11:15:55.387Z,8.86
2017-05-19T11:18:25.179Z,9.38
2017-05-19T11:20:54.242Z,8.42
2017-05-19T11:23:23.288Z,9.06
2017-05-19T11:25:53.085Z,12.04
2017-05-19T11:28:22.219Z,9.32
2017-05-19T11:30:52.013Z,8.60
2017-05-19T11:33:21.793Z,10.56
2017-05-19T11:35:50.857Z,8.74
2017-05-19T11:38:19.908Z,8.36
2017-05-19T11:40:48.967Z,8.36
2017-05-19T11:43:17.996Z,8.60
2017-05-19T11:45:47.062Z,8.30
2017-05-19T11:48:16.089Z,9.66
2017-05-19T11:50:45.140Z,8.42
2017-05-19T11:53:14.194Z,8.12
2017-05-19T11:55:43.233Z,8.62
2017-05-19T11:58:12.363Z,8.34
2017-05-19T12:00:41.463Z,9.18
2017-05-19T12:03:11.261Z,9.22
2017-05-19T12:05:40.293Z,8.30
2017-05-19T12:08:09.346Z,7.66
2017-05-19T12:10:39.117Z,7.94
2017-05-19T12:13:08.189Z,7.74
2017-05-19T12:15:37.246Z,7.66
2017-05-19T12:18:07.055Z,7.78
2017-05-19T12:20:36.836Z,7.86
2017-05-19T12:23:05.962Z,7.62
2017-05-19T12:25:35.745Z,11.30
2017-05-19T12:28:04.811Z,10.30
2017-05-19T12:30:33.846Z,7.24
2017-05-19T12:33:02.958Z,7.20
2017-05-19T12:35:32.770Z,8.14
2017-05-19T12:38:02.556Z,8.14
2017-05-19T12:40:31.673Z,7.90
2017-05-19T12:43:36.818Z,7.52
2017-05-19T12:46:05.138Z,7.00
2017-05-19T12:48:33.548Z,7.94
2017-05-19T12:51:01.860Z,7.36
2017-05-19T12:53:30.196Z,8.00
2017-05-19T12:55:58.500Z,8.38
2017-05-19T12:58:26.799Z,7.42
2017-05-19T13:00:55.104Z,6.98
2017-05-19T13:03:23.559Z,7.18
2017-05-19T13:05:51.888Z,8.00
2017-05-19T13:08:20.267Z,7.08
2017-05-19T13:10:48.641Z,7.30
2017-05-19T13:13:16.970Z,7.76
2017-05-19T13:15:45.301Z,7.50
2017-05-19T13:18:13.601Z,7.56
2017-05-19T13:20:41.895Z,8.28
2017-05-19T13:23:10.206Z,8.06
2017-05-19T13:25:38.506Z,7.70
2017-05-19T13:28:06.815Z,7.44
2017-05-19T13:30:35.175Z,6.92
2017-05-19T13:33:03.565Z,6.78
2017-05-19T13:35:31.926Z,6.52
2017-05-19T13:38:00.245Z,6.78
2017-05-19T13:40:28.580Z,6.16
2017-05-19T13:42:56.915Z,6.06
2017-05-19T13:45:25.238Z,6.80
2017-05-19T13:47:53.623Z,8.16
2017-05-19T13:50:21.923Z,7.12
2017-05-19T13:52:50.226Z,8.86
2017-05-19T13:55:18.533Z,11.18
2017-05-19T13:57:46.824Z,8.60
2017-05-19T14:00:15.128Z,7.42
2017-05-19T14:02:43.427Z,7.14
2017-05-19T14:05:11.732Z,7.38
2017-05-19T14:07:40.045Z,7.60
2017-05-19T14:10:08.413Z,8.10
2017-05-19T14:12:36.709Z,8.48
2017-05-19T14:15:05.030Z,7.12
2017-05-19T14:17:33.354Z,8.12
2017-05-19T14:20:01.736Z,8.20
2017-05-19T14:22:30.023Z,7.60
2017-05-19T14:24:58.374Z,7.16
2017-05-19T14:27:26.763Z,7.60
2017-05-19T14:29:55.079Z,7.80
2017-05-19T14:32:23.444Z,7.20
2017-05-19T14:34:51.798Z,6.62
2017-05-19T14:37:20.089Z,7.62
2017-05-19T14:39:48.459Z,8.32
2017-05-19T14:42:16.753Z,7.08
2017-05-19T14:44:45.060Z,8.18
2017-05-19T14:47:13.377Z,7.82
2017-05-19T14:49:41.762Z,8.02
2017-05-19T14:52:10.137Z,7.48
2017-05-19T14:54:38.455Z,8.76
2017-05-19T14:57:06.796Z,6.38
2017-05-19T14:59:35.095Z,8.16
2017-05-19T15:02:03.451Z,6.94
2017-05-19T15:04:31.825Z,7.06
2017-05-19T15:06:59.358Z,6.96
2017-05-19T15:09:27.664Z,7.04
2017-05-19T15:11:55.966Z,7.00
2017-05-19T15:14:24.254Z,7.14
2017-05-19T15:16:52.559Z,6.88
2017-05-19T15:19:20.863Z,7.46
2017-05-19T15:21:49.273Z,6.94
2017-05-19T15:24:17.641Z,6.52
2017-05-19T15:26:45.974Z,7.34
2017-05-19T15:29:14.283Z,6.68
2017-05-19T15:31:42.589Z,6.06
2017-05-19T15:34:10.891Z,6.90
2017-05-19T15:36:39.233Z,7.40
2017-05-19T15:39:07.556Z,7.42
2017-05-19T15:41:35.909Z,7.24
2017-05-19T15:44:04.275Z,7.20
2017-05-19T15:46:32.585Z,9.72
2017-05-19T15:49:00.882Z,8.84
2017-05-19T15:51:29.298Z,7.40
2017-05-19T15:53:57.677Z,8.40
2017-05-19T15:56:25.987Z,7.36
2017-05-19T15:58:54.333Z,11.70
2017-05-19T16:01:22.706Z,8.00
2017-05-19T16:03:51.029Z,7.86
2017-05-19T16:06:19.326Z,8.42
2017-05-19T16:08:47.644Z,10.96
2017-05-19T16:11:16.118Z,10.56
2017-05-19T16:13:44.609Z,18.56
2017-05-19T16:16:12.980Z,9.14
2017-05-19T16:18:41.450Z,8.96
2017-05-19T16:21:09.757Z,8.36
2017-05-19T16:23:38.109Z,9.00
2017-05-19T16:26:06.414Z,8.90
2017-05-19T16:28:34.763Z,8.10
2017-05-19T16:31:03.062Z,8.98
2017-05-19T16:33:31.446Z,6.94
2017-05-19T16:35:59.823Z,7.42
2017-05-19T16:38:28.198Z,8.44
2017-05-19T16:40:56.485Z,8.12
2017-05-19T16:43:24.806Z,8.00
2017-05-19T16:45:53.109Z,8.36
2017-05-19T16:48:21.526Z,8.34
2017-05-19T16:50:49.885Z,7.88
2017-05-19T16:53:18.270Z,7.50
2017-05-19T16:55:46.663Z,9.02
2017-05-19T16:58:15.038Z,10.30
2017-05-19T17:00:43.424Z,9.54
2017-05-19T17:03:11.751Z,8.04
2017-05-19T17:05:40.177Z,8.82
2017-05-19T17:08:08.466Z,8.46
2017-05-19T17:10:36.775Z,8.52
2017-05-19T17:13:05.074Z,11.84
2017-05-19T17:15:33.475Z,11.06
2017-05-19T17:18:01.865Z,9.40
2017-05-19T17:20:30.327Z,10.60
2017-05-19T17:22:58.614Z,10.18
2017-05-19T17:25:26.911Z,22.62
2017-05-19T17:27:55.271Z,10.14
2017-05-19T17:30:23.556Z,9.08
2017-05-19T17:32:51.888Z,11.66
2017-05-19T17:35:20.315Z,9.54
2017-05-19T17:37:48.634Z,11.82
2017-05-19T17:40:16.938Z,9.80
2017-05-19T17:42:45.250Z,10.28
2017-05-19T17:45:13.739Z,11.10
2017-05-19T17:47:42.110Z,10.52
2017-05-19T17:50:10.490Z,12.52
2017-05-19T17:52:38.800Z,10.50
2017-05-19T17:55:07.778Z,9.60
2017-05-19T17:57:36.130Z,9.34
2017-05-19T18:00:04.518Z,8.50
2017-05-19T18:02:32.897Z,9.12
2017-05-19T18:05:01.274Z,8.66
2017-05-19T18:07:29.572Z,10.00
2017-05-19T18:09:57.917Z,9.44
2017-05-19T18:12:26.309Z,8.50
2017-05-19T18:14:54.622Z,13.44
2017-05-19T18:17:22.942Z,9.92
2017-05-19T18:19:51.271Z,10.66
2017-05-19T18:22:19.625Z,10.62
2017-05-19T18:24:47.945Z,14.64
2017-05-19T18:27:16.288Z,11.20
2017-05-19T18:29:44.612Z,9.64
2017-05-19T18:32:13.043Z,10.34
2017-05-19T18:34:41.345Z,13.52
2017-05-19T18:37:09.677Z,11.08
2017-05-19T18:39:38.057Z,9.52
2017-05-19T18:42:06.470Z,10.24
2017-05-19T18:44:34.835Z,10.70
2017-05-19T18:47:03.145Z,11.00
2017-05-19T18:49:31.491Z,11.38
2017-05-19T18:51:59.879Z,14.88
2017-05-19T18:54:28.254Z,12.26
2017-05-19T18:56:56.564Z,10.98
2017-05-19T18:59:24.898Z,13.88
2017-05-19T19:01:53.285Z,11.06
2017-05-19T19:04:21.597Z,11.82
2017-05-19T19:06:49.898Z,10.50
2017-05-19T19:09:18.206Z,10.68
2017-05-19T19:11:46.552Z,11.36
2017-05-19T19:14:14.883Z,11.46
2017-05-19T19:16:43.244Z,10.30
2017-05-19T19:19:11.717Z,10.48
2017-05-19T19:21:40.020Z,10.88
2017-05-19T19:24:08.381Z,10.88
2017-05-19T19:26:36.701Z,10.92
2017-05-19T19:29:05.041Z,11.02
2017-05-19T19:31:33.350Z,10.94
2017-05-19T19:34:01.702Z,11.10
2017-05-19T19:36:30.096Z,10.66
2017-05-19T19:38:58.451Z,11.14
2017-05-19T19:41:26.822Z,11.08
2017-05-19T19:43:55.219Z,11.00
2017-05-19T19:46:23.578Z,12.40
2017-05-19T19:48:51.925Z,10.70
2017-05-19T19:51:20.221Z,10.38
2017-05-19T19:53:48.531Z,11.28
2017-05-19T19:56:16.898Z,10.98
2017-05-19T19:58:45.201Z,11.80
2017-05-19T20:01:13.775Z,10.90
2017-05-19T20:03:42.138Z,11.28
2017-05-19T20:06:10.452Z,11.66
2017-05-19T20:08:38.842Z,11.12
2017-05-19T20:11:07.188Z,11.80
2017-05-19T20:13:35.525Z,11.94
2017-05-19T20:16:03.901Z,12.20
2017-05-19T20:18:32.255Z,12.24
2017-05-19T20:21:00.605Z,11.98
2017-05-19T20:23:29.031Z,10.80
2017-05-19T20:25:57.370Z,11.72
2017-05-19T20:28:25.732Z,12.42
2017-05-19T20:30:54.195Z,12.04
2017-05-19T20:33:23.054Z,12.54
2017-05-19T20:35:51.377Z,12.00
2017-05-19T20:38:19.876Z,12.62
2017-05-19T20:40:48.181Z,12.46
2017-05-19T20:43:16.619Z,11.54
2017-05-19T20:45:44.918Z,11.82
2017-05-19T20:48:13.218Z,11.52
2017-05-19T20:50:41.650Z,11.40
2017-05-19T20:53:10.033Z,12.40
2017-05-19T20:55:38.531Z,12.84
2017-05-19T20:58:06.851Z,12.90
2017-05-19T21:00:35.160Z,12.22
2017-05-19T21:03:03.550Z,12.44
2017-05-19T21:05:31.908Z,12.62
2017-05-19T21:08:00.258Z,12.24
2017-05-19T21:10:28.600Z,13.92
2017-05-19T21:12:56.971Z,13.48
2017-05-19T21:15:25.296Z,12.82
2017-05-19T21:17:53.638Z,16.56
2017-05-19T21:20:21.955Z,14.42
2017-05-19T21:22:50.280Z,14.84
2017-05-19T21:25:18.662Z,19.72
2017-05-19T21:27:47.041Z,23.06
2017-05-19T21:30:15.366Z,28.18
2017-05-19T21:32:43.679Z,29.66
2017-05-19T21:35:12.079Z,31.84
2017-05-19T21:37:40.424Z,30.74
2017-05-19T21:40:08.824Z,31.46
2017-05-19T21:42:37.151Z,32.00
2017-05-19T21:45:05.493Z,32.88
2017-05-19T21:47:33.858Z,34.92
2017-05-19T21:50:02.249Z,34.12
2017-05-19T21:52:30.617Z,35.78
2017-05-19T21:54:58.925Z,35.74
2017-05-19T21:57:27.371Z,37.22
2017-05-19T21:59:55.757Z,36.04
2017-05-19T22:02:24.077Z,37.16
2017-05-19T22:04:52.370Z,38.26
2017-05-19T22:07:20.808Z,35.14
2017-05-19T22:09:48.367Z,36.46
2017-05-19T22:12:16.678Z,36.92
2017-05-19T22:14:45.415Z,35.64
2017-05-19T22:17:13.774Z,35.72
2017-05-19T22:19:42.196Z,34.94
2017-05-19T22:22:10.570Z,34.74
2017-05-19T22:24:38.957Z,39.44
2017-05-19T22:27:07.269Z,35.68
2017-05-19T22:29:35.702Z,36.08
2017-05-19T22:32:03.993Z,36.16
2017-05-19T22:34:32.310Z,31.08
2017-05-19T22:37:00.625Z,34.44
2017-05-19T22:39:28.971Z,37.40
2017-05-19T22:41:57.279Z,31.02
2017-05-19T22:44:25.611Z,29.88
2017-05-19T22:46:53.981Z,27.74
2017-05-19T22:49:22.313Z,27.32
2017-05-19T22:51:50.697Z,24.26
2017-05-19T22:54:19.325Z,23.70
2017-05-19T22:56:47.655Z,21.32
2017-05-19T22:59:16.045Z,22.42
2017-05-19T23:01:44.421Z,22.36
2017-05-19T23:04:12.741Z,25.96
2017-05-19T23:06:41.097Z,24.76
2017-05-19T23:09:09.402Z,21.80
2017-05-19T23:11:37.743Z,22.74
2017-05-19T23:14:06.049Z,20.72
2017-05-19T23:16:34.391Z,18.04
2017-05-19T23:19:02.802Z,16.92
2017-05-19T23:21:31.208Z,15.02
2017-05-19T23:23:59.542Z,15.60
2017-05-19T23:26:27.878Z,13.22
2017-05-19T23:28:56.294Z,11.76
2017-05-19T23:31:24.597Z,11.22
2017-05-19T23:33:52.919Z,10.90
2017-05-19T23:36:21.335Z,10.14
2017-05-19T23:38:49.641Z,12.34
2017-05-19T23:41:17.970Z,9.70
2017-05-19T23:43:46.353Z,8.36
2017-05-19T23:46:14.654Z,8.00
2017-05-19T23:48:43.028Z,8.40
2017-05-19T23:51:11.392Z,7.70
2017-05-19T23:53:39.693Z,10.76
2017-05-19T23:56:08.058Z,8.48
2017-05-19T23:58:36.435Z,7.66
